sensor_id;sensor_type;location;lat;lon;timestamp;P1;durP1;ratioP1;P2;durP2;ratioP2
64959;SDS011;51487;52.266;10.542;2023-08-30T00:00:19;2.63;;;2.03;;
64959;SDS011;51487;52.266;10.542;2023-08-30T00:02:47;2.78;;;1.95;;
64959;SDS011;51487;52.266;10.542;2023-08-30T00:05:13;3.15;;;2.17;;
64959;SDS011;51487;52.266;10.542;2023-08-30T00:07:39;2.30;;;1.80;;
64959;SDS011;51487;52.266;10.542;2023-08-30T00:10:06;5.10;;;2.10;;
64959;SDS011;51487;52.266;10.542;2023-08-30T00:12:33;3.60;;;2.13;;
64959;SDS011;51487;52.266;10.542;2023-08-30T00:14:59;3.83;;;2.00;;
64959;SDS011;51487;52.266;10.542;2023-08-30T00:17:24;3.95;;;2.25;;
64959;SDS011;51487;52.266;10.542;2023-08-30T00:19:50;5.07;;;2.28;;
64959;SDS011;51487;52.266;10.542;2023-08-30T00:22:17;5.95;;;1.90;;
64959;SDS011;51487;52.266;10.542;2023-08-30T00:24:44;4.53;;;2.20;;
64959;SDS011;51487;52.266;10.542;2023-08-30T00:27:10;4.10;;;2.03;;
64959;SDS011;51487;52.266;10.542;2023-08-30T00:29:37;11.05;;;2.45;;
64959;SDS011;51487;52.266;10.542;2023-08-30T00:32:02;5.63;;;2.20;;
64959;SDS011;51487;52.266;10.542;2023-08-30T00:34:28;3.10;;;1.92;;
64959;SDS011;51487;52.266;10.542;2023-08-30T00:36:54;6.82;;;2.20;;
64959;SDS011;51487;52.266;10.542;2023-08-30T00:39:19;4.28;;;2.00;;
64959;SDS011;51487;52.266;10.542;2023-08-30T00:41:45;5.13;;;2.50;;
64959;SDS011;51487;52.266;10.542;2023-08-30T00:44:10;3.30;;;2.28;;
64959;SDS011;51487;52.266;10.542;2023-08-30T00:46:36;3.97;;;2.35;;
64959;SDS011;51487;52.266;10.542;2023-08-30T00:49:02;6.30;;;2.40;;
64959;SDS011;51487;52.266;10.542;2023-08-30T00:51:29;5.43;;;2.45;;
64959;SDS011;51487;52.266;10.542;2023-08-30T00:53:56;4.15;;;2.40;;
64959;SDS011;51487;52.266;10.542;2023-08-30T00:56:24;4.32;;;2.63;;
64959;SDS011;51487;52.266;10.542;2023-08-30T00:58:52;3.95;;;3.00;;
64959;SDS011;51487;52.266;10.542;2023-08-30T01:01:18;4.72;;;2.90;;
64959;SDS011;51487;52.266;10.542;2023-08-30T01:03:44;3.70;;;2.90;;
64959;SDS011;51487;52.266;10.542;2023-08-30T01:06:10;7.82;;;4.15;;
64959;SDS011;51487;52.266;10.542;2023-08-30T01:08:36;5.18;;;3.83;;
64959;SDS011;51487;52.266;10.542;2023-08-30T01:11:04;4.50;;;3.40;;
64959;SDS011;51487;52.266;10.542;2023-08-30T01:14:02;4.75;;;3.85;;
64959;SDS011;51487;52.266;10.542;2023-08-30T01:16:34;5.63;;;3.50;;
64959;SDS011;51487;52.266;10.542;2023-08-30T01:19:03;5.28;;;3.85;;
64959;SDS011;51487;52.266;10.542;2023-08-30T01:21:53;5.65;;;3.92;;
64959;SDS011;51487;52.266;10.542;2023-08-30T01:24:32;4.95;;;4.15;;
64959;SDS011;51487;52.266;10.542;2023-08-30T01:27:14;5.43;;;3.72;;
64959;SDS011;51487;52.266;10.542;2023-08-30T01:29:43;6.28;;;4.35;;
64959;SDS011;51487;52.266;10.542;2023-08-30T01:32:11;4.57;;;3.72;;
64959;SDS011;51487;52.266;10.542;2023-08-30T01:34:39;4.57;;;3.53;;
64959;SDS011;51487;52.266;10.542;2023-08-30T01:37:07;4.95;;;3.83;;
64959;SDS011;51487;52.266;10.542;2023-08-30T01:39:34;6.03;;;3.83;;
64959;SDS011;51487;52.266;10.542;2023-08-30T01:42:02;5.93;;;3.53;;
64959;SDS011;51487;52.266;10.542;2023-08-30T01:44:30;3.75;;;3.25;;
64959;SDS011;51487;52.266;10.542;2023-08-30T01:46:56;5.32;;;3.70;;
64959;SDS011;51487;52.266;10.542;2023-08-30T01:49:23;5.85;;;3.55;;
64959;SDS011;51487;52.266;10.542;2023-08-30T01:51:50;4.60;;;3.72;;
64959;SDS011;51487;52.266;10.542;2023-08-30T01:54:17;5.75;;;3.95;;
64959;SDS011;51487;52.266;10.542;2023-08-30T01:56:45;5.72;;;3.75;;
64959;SDS011;51487;52.266;10.542;2023-08-30T01:59:12;5.90;;;4.00;;
64959;SDS011;51487;52.266;10.542;2023-08-30T02:01:37;4.88;;;3.40;;
64959;SDS011;51487;52.266;10.542;2023-08-30T02:04:03;7.03;;;3.38;;
64959;SDS011;51487;52.266;10.542;2023-08-30T02:09:28;4.90;;;3.42;;
64959;SDS011;51487;52.266;10.542;2023-08-30T02:12:13;4.43;;;3.22;;
64959;SDS011;51487;52.266;10.542;2023-08-30T02:14:44;4.50;;;3.40;;
64959;SDS011;51487;52.266;10.542;2023-08-30T02:17:17;6.85;;;3.50;;
64959;SDS011;51487;52.266;10.542;2023-08-30T02:19:44;5.32;;;3.28;;
64959;SDS011;51487;52.266;10.542;2023-08-30T02:22:10;5.15;;;3.35;;
64959;SDS011;51487;52.266;10.542;2023-08-30T02:24:37;3.97;;;3.10;;
64959;SDS011;51487;52.266;10.542;2023-08-30T02:27:02;5.70;;;3.40;;
64959;SDS011;51487;52.266;10.542;2023-08-30T02:29:28;3.90;;;3.10;;
64959;SDS011;51487;52.266;10.542;2023-08-30T02:31:54;5.50;;;3.60;;
64959;SDS011;51487;52.266;10.542;2023-08-30T02:34:19;4.55;;;3.15;;
64959;SDS011;51487;52.266;10.542;2023-08-30T02:36:45;4.13;;;3.30;;
64959;SDS011;51487;52.266;10.542;2023-08-30T02:39:14;3.47;;;2.92;;
64959;SDS011;51487;52.266;10.542;2023-08-30T02:41:40;5.60;;;3.75;;
64959;SDS011;51487;52.266;10.542;2023-08-30T02:44:10;5.57;;;2.92;;
64959;SDS011;51487;52.266;10.542;2023-08-30T02:46:36;4.72;;;3.15;;
64959;SDS011;51487;52.266;10.542;2023-08-30T02:49:06;7.30;;;3.20;;
64959;SDS011;51487;52.266;10.542;2023-08-30T02:51:32;7.85;;;3.75;;
64959;SDS011;51487;52.266;10.542;2023-08-30T02:53:58;5.40;;;3.30;;
64959;SDS011;51487;52.266;10.542;2023-08-30T02:56:23;4.80;;;3.20;;
64959;SDS011;51487;52.266;10.542;2023-08-30T02:58:50;4.75;;;3.35;;
64959;SDS011;51487;52.266;10.542;2023-08-30T03:01:15;6.15;;;3.17;;
64959;SDS011;51487;52.266;10.542;2023-08-30T03:03:41;5.88;;;3.10;;
64959;SDS011;51487;52.266;10.542;2023-08-30T03:06:06;7.03;;;3.58;;
64959;SDS011;51487;52.266;10.542;2023-08-30T03:08:32;4.60;;;3.10;;
64959;SDS011;51487;52.266;10.542;2023-08-30T03:11:07;4.78;;;3.05;;
64959;SDS011;51487;52.266;10.542;2023-08-30T03:13:37;5.40;;;3.30;;
64959;SDS011;51487;52.266;10.542;2023-08-30T03:16:11;4.10;;;3.10;;
64959;SDS011;51487;52.266;10.542;2023-08-30T03:18:39;5.72;;;3.10;;
64959;SDS011;51487;52.266;10.542;2023-08-30T03:21:05;5.55;;;3.22;;
64959;SDS011;51487;52.266;10.542;2023-08-30T03:23:32;4.43;;;2.72;;
64959;SDS011;51487;52.266;10.542;2023-08-30T03:25:58;4.55;;;2.80;;
64959;SDS011;51487;52.266;10.542;2023-08-30T03:28:25;4.18;;;3.03;;
64959;SDS011;51487;52.266;10.542;2023-08-30T03:30:52;4.55;;;2.85;;
64959;SDS011;51487;52.266;10.542;2023-08-30T03:33:18;5.15;;;2.70;;
64959;SDS011;51487;52.266;10.542;2023-08-30T03:35:43;4.55;;;3.15;;
64959;SDS011;51487;52.266;10.542;2023-08-30T03:38:09;4.15;;;2.85;;
64959;SDS011;51487;52.266;10.542;2023-08-30T03:40:34;4.72;;;3.00;;
64959;SDS011;51487;52.266;10.542;2023-08-30T03:43:00;5.82;;;3.20;;
64959;SDS011;51487;52.266;10.542;2023-08-30T03:45:26;4.25;;;2.90;;
64959;SDS011;51487;52.266;10.542;2023-08-30T03:47:51;4.30;;;3.03;;
64959;SDS011;51487;52.266;10.542;2023-08-30T03:50:17;5.88;;;3.22;;
64959;SDS011;51487;52.266;10.542;2023-08-30T03:52:42;4.22;;;2.88;;
64959;SDS011;51487;52.266;10.542;2023-08-30T03:55:08;4.00;;;2.97;;
64959;SDS011;51487;52.266;10.542;2023-08-30T03:57:33;6.55;;;3.40;;
64959;SDS011;51487;52.266;10.542;2023-08-30T03:59:59;4.55;;;3.20;;
64959;SDS011;51487;52.266;10.542;2023-08-30T04:02:25;4.80;;;3.17;;
64959;SDS011;51487;52.266;10.542;2023-08-30T04:04:50;3.20;;;2.90;;
64959;SDS011;51487;52.266;10.542;2023-08-30T04:07:16;5.75;;;3.22;;
64959;SDS011;51487;52.266;10.542;2023-08-30T04:09:41;4.32;;;3.22;;
64959;SDS011;51487;52.266;10.542;2023-08-30T04:12:07;4.43;;;3.00;;
64959;SDS011;51487;52.266;10.542;2023-08-30T04:14:32;5.55;;;3.10;;
64959;SDS011;51487;52.266;10.542;2023-08-30T04:16:58;4.78;;;3.17;;
64959;SDS011;51487;52.266;10.542;2023-08-30T04:19:23;4.97;;;3.00;;
64959;SDS011;51487;52.266;10.542;2023-08-30T04:21:49;5.22;;;2.90;;
64959;SDS011;51487;52.266;10.542;2023-08-30T04:24:14;4.65;;;2.85;;
64959;SDS011;51487;52.266;10.542;2023-08-30T04:26:40;4.43;;;3.28;;
64959;SDS011;51487;52.266;10.542;2023-08-30T04:29:06;3.80;;;2.75;;
64959;SDS011;51487;52.266;10.542;2023-08-30T04:31:32;6.07;;;3.17;;
64959;SDS011;51487;52.266;10.542;2023-08-30T04:33:58;4.57;;;3.10;;
64959;SDS011;51487;52.266;10.542;2023-08-30T04:36:23;4.93;;;3.65;;
64959;SDS011;51487;52.266;10.542;2023-08-30T04:38:49;7.82;;;3.10;;
64959;SDS011;51487;52.266;10.542;2023-08-30T04:41:14;4.43;;;2.92;;
64959;SDS011;51487;52.266;10.542;2023-08-30T04:43:41;5.43;;;2.80;;
64959;SDS011;51487;52.266;10.542;2023-08-30T04:46:07;5.05;;;3.30;;
64959;SDS011;51487;52.266;10.542;2023-08-30T04:48:32;9.00;;;3.65;;
64959;SDS011;51487;52.266;10.542;2023-08-30T04:50:59;6.57;;;3.90;;
64959;SDS011;51487;52.266;10.542;2023-08-30T04:53:26;5.93;;;3.60;;
64959;SDS011;51487;52.266;10.542;2023-08-30T04:55:52;9.55;;;3.85;;
64959;SDS011;51487;52.266;10.542;2023-08-30T04:58:17;8.10;;;3.72;;
64959;SDS011;51487;52.266;10.542;2023-08-30T05:00:43;6.18;;;3.25;;
64959;SDS011;51487;52.266;10.542;2023-08-30T05:03:08;11.38;;;3.38;;
64959;SDS011;51487;52.266;10.542;2023-08-30T05:05:34;9.38;;;3.75;;
64959;SDS011;51487;52.266;10.542;2023-08-30T05:07:59;6.45;;;3.83;;
64959;SDS011;51487;52.266;10.542;2023-08-30T05:10:25;11.57;;;4.03;;
64959;SDS011;51487;52.266;10.542;2023-08-30T05:12:50;5.95;;;4.10;;
64959;SDS011;51487;52.266;10.542;2023-08-30T05:15:17;7.03;;;3.90;;
64959;SDS011;51487;52.266;10.542;2023-08-30T05:17:43;6.60;;;4.20;;
64959;SDS011;51487;52.266;10.542;2023-08-30T05:20:09;10.13;;;3.75;;
64959;SDS011;51487;52.266;10.542;2023-08-30T05:22:35;7.72;;;3.50;;
64959;SDS011;51487;52.266;10.542;2023-08-30T05:25:00;9.57;;;3.33;;
64959;SDS011;51487;52.266;10.542;2023-08-30T05:27:26;6.70;;;3.67;;
64959;SDS011;51487;52.266;10.542;2023-08-30T05:29:52;5.50;;;3.30;;
64959;SDS011;51487;52.266;10.542;2023-08-30T05:32:18;6.78;;;3.30;;
64959;SDS011;51487;52.266;10.542;2023-08-30T05:34:44;4.38;;;3.13;;
64959;SDS011;51487;52.266;10.542;2023-08-30T05:37:09;5.95;;;3.00;;
64959;SDS011;51487;52.266;10.542;2023-08-30T05:39:35;4.40;;;3.28;;
64959;SDS011;51487;52.266;10.542;2023-08-30T05:42:00;5.43;;;3.00;;
64959;SDS011;51487;52.266;10.542;2023-08-30T05:44:26;8.70;;;2.85;;
64959;SDS011;51487;52.266;10.542;2023-08-30T05:46:51;4.70;;;3.00;;
64959;SDS011;51487;52.266;10.542;2023-08-30T05:49:17;6.22;;;3.10;;
64959;SDS011;51487;52.266;10.542;2023-08-30T05:51:42;4.90;;;3.42;;
64959;SDS011;51487;52.266;10.542;2023-08-30T05:54:08;7.43;;;2.88;;
64959;SDS011;51487;52.266;10.542;2023-08-30T05:56:33;6.97;;;2.83;;
64959;SDS011;51487;52.266;10.542;2023-08-30T05:58:59;5.63;;;2.92;;
64959;SDS011;51487;52.266;10.542;2023-08-30T06:01:24;9.23;;;3.63;;
64959;SDS011;51487;52.266;10.542;2023-08-30T06:03:50;5.97;;;3.33;;
64959;SDS011;51487;52.266;10.542;2023-08-30T06:06:16;7.15;;;3.80;;
64959;SDS011;51487;52.266;10.542;2023-08-30T06:08:42;5.60;;;3.45;;
64959;SDS011;51487;52.266;10.542;2023-08-30T06:11:07;7.68;;;3.40;;
64959;SDS011;51487;52.266;10.542;2023-08-30T06:13:33;5.53;;;3.30;;
64959;SDS011;51487;52.266;10.542;2023-08-30T06:15:58;4.72;;;3.28;;
64959;SDS011;51487;52.266;10.542;2023-08-30T06:18:26;10.57;;;3.58;;
64959;SDS011;51487;52.266;10.542;2023-08-30T06:20:55;4.72;;;3.30;;
64959;SDS011;51487;52.266;10.542;2023-08-30T06:23:20;10.73;;;3.38;;
64959;SDS011;51487;52.266;10.542;2023-08-30T06:25:53;11.27;;;3.47;;
64959;SDS011;51487;52.266;10.542;2023-08-30T06:28:22;7.20;;;3.40;;
64959;SDS011;51487;52.266;10.542;2023-08-30T06:30:48;7.85;;;3.33;;
64959;SDS011;51487;52.266;10.542;2023-08-30T06:33:14;5.45;;;3.25;;
64959;SDS011;51487;52.266;10.542;2023-08-30T06:35:39;6.53;;;3.38;;
64959;SDS011;51487;52.266;10.542;2023-08-30T06:38:06;6.85;;;4.20;;
64959;SDS011;51487;52.266;10.542;2023-08-30T06:40:32;6.85;;;3.30;;
64959;SDS011;51487;52.266;10.542;2023-08-30T06:42:57;5.35;;;3.58;;
64959;SDS011;51487;52.266;10.542;2023-08-30T06:45:24;12.00;;;3.65;;
64959;SDS011;51487;52.266;10.542;2023-08-30T06:47:50;9.25;;;4.38;;
64959;SDS011;51487;52.266;10.542;2023-08-30T06:50:17;7.40;;;3.35;;
64959;SDS011;51487;52.266;10.542;2023-08-30T06:52:43;6.15;;;3.60;;
64959;SDS011;51487;52.266;10.542;2023-08-30T06:55:08;11.48;;;3.70;;
64959;SDS011;51487;52.266;10.542;2023-08-30T06:57:34;7.40;;;3.28;;
64959;SDS011;51487;52.266;10.542;2023-08-30T07:00:00;6.93;;;3.35;;
64959;SDS011;51487;52.266;10.542;2023-08-30T07:02:32;6.38;;;3.40;;
64959;SDS011;51487;52.266;10.542;2023-08-30T07:05:02;8.13;;;3.22;;
64959;SDS011;51487;52.266;10.542;2023-08-30T07:07:30;4.75;;;3.00;;
64959;SDS011;51487;52.266;10.542;2023-08-30T07:09:56;6.38;;;2.85;;
64959;SDS011;51487;52.266;10.542;2023-08-30T07:12:22;4.97;;;3.00;;
64959;SDS011;51487;52.266;10.542;2023-08-30T07:14:47;6.80;;;3.10;;
64959;SDS011;51487;52.266;10.542;2023-08-30T07:17:13;4.95;;;3.13;;
64959;SDS011;51487;52.266;10.542;2023-08-30T07:19:38;5.60;;;3.28;;
64959;SDS011;51487;52.266;10.542;2023-08-30T07:22:04;6.70;;;3.50;;
64959;SDS011;51487;52.266;10.542;2023-08-30T07:24:30;6.80;;;3.15;;
64959;SDS011;51487;52.266;10.542;2023-08-30T07:26:55;9.82;;;3.38;;
64959;SDS011;51487;52.266;10.542;2023-08-30T07:29:21;7.85;;;3.70;;
64959;SDS011;51487;52.266;10.542;2023-08-30T07:31:46;7.88;;;3.25;;
64959;SDS011;51487;52.266;10.542;2023-08-30T07:34:12;7.57;;;3.15;;
64959;SDS011;51487;52.266;10.542;2023-08-30T07:36:38;7.53;;;3.20;;
64959;SDS011;51487;52.266;10.542;2023-08-30T07:39:03;5.53;;;2.80;;
64959;SDS011;51487;52.266;10.542;2023-08-30T07:41:29;10.38;;;3.70;;
64959;SDS011;51487;52.266;10.542;2023-08-30T07:43:56;4.53;;;2.80;;
64959;SDS011;51487;52.266;10.542;2023-08-30T07:46:21;8.70;;;2.53;;
64959;SDS011;51487;52.266;10.542;2023-08-30T07:48:47;4.75;;;2.67;;
64959;SDS011;51487;52.266;10.542;2023-08-30T07:51:12;9.30;;;3.00;;
64959;SDS011;51487;52.266;10.542;2023-08-30T07:53:38;5.72;;;3.05;;
64959;SDS011;51487;52.266;10.542;2023-08-30T07:56:03;4.55;;;2.97;;
64959;SDS011;51487;52.266;10.542;2023-08-30T07:58:29;4.90;;;2.55;;
64959;SDS011;51487;52.266;10.542;2023-08-30T08:00:54;4.57;;;2.55;;
64959;SDS011;51487;52.266;10.542;2023-08-30T08:03:20;7.32;;;2.60;;
64959;SDS011;51487;52.266;10.542;2023-08-30T08:05:46;6.75;;;2.75;;
64959;SDS011;51487;52.266;10.542;2023-08-30T08:08:12;8.23;;;2.78;;
64959;SDS011;51487;52.266;10.542;2023-08-30T08:10:39;6.70;;;2.40;;
64959;SDS011;51487;52.266;10.542;2023-08-30T08:13:06;3.95;;;2.40;;
64959;SDS011;51487;52.266;10.542;2023-08-30T08:15:32;5.22;;;2.30;;
64959;SDS011;51487;52.266;10.542;2023-08-30T08:17:58;6.25;;;2.40;;
64959;SDS011;51487;52.266;10.542;2023-08-30T08:20:25;8.63;;;2.65;;
64959;SDS011;51487;52.266;10.542;2023-08-30T08:22:51;6.85;;;2.10;;
64959;SDS011;51487;52.266;10.542;2023-08-30T08:25:17;5.22;;;2.40;;
64959;SDS011;51487;52.266;10.542;2023-08-30T08:27:43;6.05;;;2.08;;
64959;SDS011;51487;52.266;10.542;2023-08-30T08:30:08;3.97;;;2.10;;
64959;SDS011;51487;52.266;10.542;2023-08-30T08:32:35;3.88;;;2.75;;
64959;SDS011;51487;52.266;10.542;2023-08-30T08:35:01;8.35;;;2.40;;
64959;SDS011;51487;52.266;10.542;2023-08-30T08:37:27;2.60;;;2.00;;
64959;SDS011;51487;52.266;10.542;2023-08-30T08:39:53;7.95;;;2.17;;
64959;SDS011;51487;52.266;10.542;2023-08-30T08:42:19;3.30;;;2.40;;
64959;SDS011;51487;52.266;10.542;2023-08-30T08:44:51;2.75;;;2.28;;
64959;SDS011;51487;52.266;10.542;2023-08-30T08:47:20;3.65;;;1.90;;
64959;SDS011;51487;52.266;10.542;2023-08-30T08:49:49;3.55;;;2.33;;
64959;SDS011;51487;52.266;10.542;2023-08-30T08:52:16;4.25;;;2.45;;
64959;SDS011;51487;52.266;10.542;2023-08-30T08:54:42;3.30;;;1.70;;
64959;SDS011;51487;52.266;10.542;2023-08-30T08:57:09;3.58;;;1.90;;
64959;SDS011;51487;52.266;10.542;2023-08-30T08:59:34;4.65;;;2.10;;
64959;SDS011;51487;52.266;10.542;2023-08-30T09:02:01;3.05;;;2.10;;
64959;SDS011;51487;52.266;10.542;2023-08-30T09:04:30;3.38;;;1.83;;
64959;SDS011;51487;52.266;10.542;2023-08-30T09:07:00;2.35;;;1.80;;
64959;SDS011;51487;52.266;10.542;2023-08-30T09:09:27;3.97;;;1.90;;
64959;SDS011;51487;52.266;10.542;2023-08-30T09:11:52;2.67;;;1.83;;
64959;SDS011;51487;52.266;10.542;2023-08-30T09:14:18;4.68;;;2.20;;
64959;SDS011;51487;52.266;10.542;2023-08-30T09:16:57;7.13;;;2.80;;
64959;SDS011;51487;52.266;10.542;2023-08-30T09:19:27;5.60;;;2.22;;
64959;SDS011;51487;52.266;10.542;2023-08-30T09:21:53;4.80;;;1.67;;
64959;SDS011;51487;52.266;10.542;2023-08-30T09:24:21;4.63;;;2.15;;
64959;SDS011;51487;52.266;10.542;2023-08-30T09:26:48;6.30;;;2.20;;
64959;SDS011;51487;52.266;10.542;2023-08-30T09:29:18;3.85;;;1.90;;
64959;SDS011;51487;52.266;10.542;2023-08-30T09:31:50;4.68;;;2.00;;
64959;SDS011;51487;52.266;10.542;2023-08-30T09:34:26;3.00;;;1.88;;
64959;SDS011;51487;52.266;10.542;2023-08-30T09:36:52;3.85;;;1.95;;
64959;SDS011;51487;52.266;10.542;2023-08-30T09:39:18;5.50;;;2.40;;
64959;SDS011;51487;52.266;10.542;2023-08-30T09:41:48;4.07;;;2.20;;
64959;SDS011;51487;52.266;10.542;2023-08-30T09:44:16;7.22;;;2.20;;
64959;SDS011;51487;52.266;10.542;2023-08-30T09:46:53;5.75;;;2.45;;
64959;SDS011;51487;52.266;10.542;2023-08-30T09:49:21;2.92;;;2.10;;
64959;SDS011;51487;52.266;10.542;2023-08-30T09:51:49;5.57;;;2.97;;
64959;SDS011;51487;52.266;10.542;2023-08-30T09:54:26;6.95;;;2.95;;
64959;SDS011;51487;52.266;10.542;2023-08-30T09:56:54;6.35;;;2.38;;
64959;SDS011;51487;52.266;10.542;2023-08-30T09:59:22;4.50;;;2.70;;
64959;SDS011;51487;52.266;10.542;2023-08-30T10:01:48;5.10;;;2.88;;
64959;SDS011;51487;52.266;10.542;2023-08-30T10:04:15;6.43;;;2.50;;
64959;SDS011;51487;52.266;10.542;2023-08-30T10:06:42;4.15;;;2.72;;
64959;SDS011;51487;52.266;10.542;2023-08-30T10:09:08;6.10;;;2.65;;
64959;SDS011;51487;52.266;10.542;2023-08-30T10:11:35;4.85;;;2.78;;
64959;SDS011;51487;52.266;10.542;2023-08-30T10:14:02;5.25;;;2.65;;
64959;SDS011;51487;52.266;10.542;2023-08-30T10:16:45;6.85;;;2.28;;
64959;SDS011;51487;52.266;10.542;2023-08-30T10:19:16;3.03;;;2.28;;
64959;SDS011;51487;52.266;10.542;2023-08-30T10:24:32;3.20;;;1.88;;
64959;SDS011;51487;52.266;10.542;2023-08-30T10:27:04;3.28;;;1.63;;
64959;SDS011;51487;52.266;10.542;2023-08-30T10:29:34;3.58;;;1.80;;
64959;SDS011;51487;52.266;10.542;2023-08-30T10:32:04;3.50;;;1.85;;
64959;SDS011;51487;52.266;10.542;2023-08-30T10:34:31;5.78;;;1.73;;
64959;SDS011;51487;52.266;10.542;2023-08-30T10:37:09;4.57;;;2.38;;
64959;SDS011;51487;52.266;10.542;2023-08-30T10:39:39;5.47;;;2.10;;
64959;SDS011;51487;52.266;10.542;2023-08-30T10:42:13;3.22;;;2.28;;
64959;SDS011;51487;52.266;10.542;2023-08-30T10:47:24;4.68;;;2.65;;
64959;SDS011;51487;52.266;10.542;2023-08-30T10:49:59;4.80;;;2.70;;
64959;SDS011;51487;52.266;10.542;2023-08-30T10:52:29;4.90;;;2.75;;
64959;SDS011;51487;52.266;10.542;2023-08-30T10:55:10;6.00;;;2.70;;
64959;SDS011;51487;52.266;10.542;2023-08-30T10:57:43;2.40;;;2.20;;
64959;SDS011;51487;52.266;10.542;2023-08-30T11:00:20;6.32;;;2.83;;
64959;SDS011;51487;52.266;10.542;2023-08-30T11:02:50;2.40;;;2.00;;
64959;SDS011;51487;52.266;10.542;2023-08-30T11:05:18;3.30;;;2.28;;
64959;SDS011;51487;52.266;10.542;2023-08-30T11:07:46;3.05;;;1.92;;
64959;SDS011;51487;52.266;10.542;2023-08-30T11:10:14;4.60;;;2.67;;
64959;SDS011;51487;52.266;10.542;2023-08-30T11:12:40;3.78;;;2.53;;
64959;SDS011;51487;52.266;10.542;2023-08-30T11:15:07;4.28;;;2.42;;
64959;SDS011;51487;52.266;10.542;2023-08-30T11:17:34;3.13;;;2.10;;
64959;SDS011;51487;52.266;10.542;2023-08-30T11:20:06;7.68;;;2.38;;
64959;SDS011;51487;52.266;10.542;2023-08-30T11:22:41;5.35;;;2.30;;
64959;SDS011;51487;52.266;10.542;2023-08-30T11:25:09;3.38;;;2.55;;
64959;SDS011;51487;52.266;10.542;2023-08-30T11:27:37;3.05;;;2.10;;
64959;SDS011;51487;52.266;10.542;2023-08-30T11:30:03;3.92;;;2.67;;
64959;SDS011;51487;52.266;10.542;2023-08-30T11:32:34;4.53;;;2.53;;
64959;SDS011;51487;52.266;10.542;2023-08-30T11:35:02;4.97;;;2.22;;
64959;SDS011;51487;52.266;10.542;2023-08-30T11:37:28;3.33;;;2.47;;
64959;SDS011;51487;52.266;10.542;2023-08-30T11:39:54;5.07;;;2.63;;
64959;SDS011;51487;52.266;10.542;2023-08-30T11:42:21;5.43;;;2.55;;
64959;SDS011;51487;52.266;10.542;2023-08-30T11:44:47;7.75;;;2.50;;
64959;SDS011;51487;52.266;10.542;2023-08-30T11:47:20;4.40;;;3.40;;
64959;SDS011;51487;52.266;10.542;2023-08-30T11:49:49;4.50;;;2.85;;
64959;SDS011;51487;52.266;10.542;2023-08-30T11:52:19;5.40;;;2.90;;
64959;SDS011;51487;52.266;10.542;2023-08-30T11:54:46;6.35;;;3.05;;
64959;SDS011;51487;52.266;10.542;2023-08-30T11:57:13;4.43;;;3.10;;
64959;SDS011;51487;52.266;10.542;2023-08-30T11:59:38;5.95;;;3.38;;
64959;SDS011;51487;52.266;10.542;2023-08-30T12:02:04;5.05;;;3.65;;
64959;SDS011;51487;52.266;10.542;2023-08-30T12:04:32;5.47;;;3.53;;
64959;SDS011;51487;52.266;10.542;2023-08-30T12:06:57;3.40;;;2.92;;
64959;SDS011;51487;52.266;10.542;2023-08-30T12:09:29;6.75;;;3.25;;
64959;SDS011;51487;52.266;10.542;2023-08-30T12:12:04;3.53;;;3.00;;
64959;SDS011;51487;52.266;10.542;2023-08-30T12:14:36;5.70;;;3.58;;
64959;SDS011;51487;52.266;10.542;2023-08-30T12:17:03;7.50;;;3.38;;
64959;SDS011;51487;52.266;10.542;2023-08-30T12:19:30;6.47;;;3.28;;
64959;SDS011;51487;52.266;10.542;2023-08-30T12:22:02;4.72;;;2.90;;
64959;SDS011;51487;52.266;10.542;2023-08-30T12:27:15;3.25;;;2.70;;
64959;SDS011;51487;52.266;10.542;2023-08-30T12:29:41;4.72;;;3.50;;
64959;SDS011;51487;52.266;10.542;2023-08-30T12:32:06;4.93;;;3.60;;
64959;SDS011;51487;52.266;10.542;2023-08-30T12:34:33;3.88;;;3.20;;
64959;SDS011;51487;52.266;10.542;2023-08-30T12:36:59;3.92;;;2.97;;
64959;SDS011;51487;52.266;10.542;2023-08-30T12:39:25;4.95;;;3.05;;
64959;SDS011;51487;52.266;10.542;2023-08-30T12:41:50;4.35;;;2.88;;
64959;SDS011;51487;52.266;10.542;2023-08-30T12:44:16;9.68;;;2.90;;
64959;SDS011;51487;52.266;10.542;2023-08-30T12:46:42;5.20;;;3.30;;
64959;SDS011;51487;52.266;10.542;2023-08-30T12:49:07;7.65;;;3.15;;
64959;SDS011;51487;52.266;10.542;2023-08-30T12:51:32;8.63;;;3.08;;
64959;SDS011;51487;52.266;10.542;2023-08-30T12:53:58;6.78;;;2.90;;
64959;SDS011;51487;52.266;10.542;2023-08-30T12:56:23;5.25;;;3.00;;
64959;SDS011;51487;52.266;10.542;2023-08-30T12:58:49;5.75;;;3.55;;
64959;SDS011;51487;52.266;10.542;2023-08-30T13:01:16;3.15;;;2.80;;
64959;SDS011;51487;52.266;10.542;2023-08-30T13:03:41;4.07;;;3.10;;
64959;SDS011;51487;52.266;10.542;2023-08-30T13:06:07;3.15;;;2.45;;
64959;SDS011;51487;52.266;10.542;2023-08-30T13:08:32;5.90;;;3.38;;
64959;SDS011;51487;52.266;10.542;2023-08-30T13:11:01;5.63;;;3.25;;
64959;SDS011;51487;52.266;10.542;2023-08-30T13:13:27;4.30;;;3.17;;
64959;SDS011;51487;52.266;10.542;2023-08-30T13:15:52;4.88;;;2.83;;
64959;SDS011;51487;52.266;10.542;2023-08-30T13:18:17;5.53;;;2.88;;
64959;SDS011;51487;52.266;10.542;2023-08-30T13:20:43;4.32;;;2.67;;
64959;SDS011;51487;52.266;10.542;2023-08-30T13:23:10;4.20;;;3.00;;
64959;SDS011;51487;52.266;10.542;2023-08-30T13:25:41;4.35;;;2.40;;
64959;SDS011;51487;52.266;10.542;2023-08-30T13:28:07;3.83;;;2.43;;
64959;SDS011;51487;52.266;10.542;2023-08-30T13:30:33;3.20;;;2.70;;
64959;SDS011;51487;52.266;10.542;2023-08-30T13:32:59;3.85;;;2.25;;
64959;SDS011;51487;52.266;10.542;2023-08-30T13:35:24;5.07;;;2.20;;
64959;SDS011;51487;52.266;10.542;2023-08-30T13:37:50;4.43;;;2.05;;
64959;SDS011;51487;52.266;10.542;2023-08-30T13:40:16;4.32;;;2.28;;
64959;SDS011;51487;52.266;10.542;2023-08-30T13:42:42;3.97;;;2.20;;
64959;SDS011;51487;52.266;10.542;2023-08-30T13:45:08;3.63;;;2.25;;
64959;SDS011;51487;52.266;10.542;2023-08-30T13:47:34;4.22;;;2.13;;
64959;SDS011;51487;52.266;10.542;2023-08-30T13:50:00;2.92;;;2.10;;
64959;SDS011;51487;52.266;10.542;2023-08-30T13:52:26;3.20;;;2.53;;
64959;SDS011;51487;52.266;10.542;2023-08-30T13:54:54;5.30;;;2.50;;
64959;SDS011;51487;52.266;10.542;2023-08-30T13:57:19;6.40;;;2.60;;
64959;SDS011;51487;52.266;10.542;2023-08-30T13:59:45;4.43;;;2.60;;
64959;SDS011;51487;52.266;10.542;2023-08-30T14:02:10;4.45;;;2.60;;
64959;SDS011;51487;52.266;10.542;2023-08-30T14:04:36;6.03;;;2.75;;
64959;SDS011;51487;52.266;10.542;2023-08-30T14:07:02;3.33;;;2.33;;
64959;SDS011;51487;52.266;10.542;2023-08-30T14:09:28;3.10;;;2.25;;
64959;SDS011;51487;52.266;10.542;2023-08-30T14:11:54;4.10;;;2.42;;
64959;SDS011;51487;52.266;10.542;2023-08-30T14:14:20;4.93;;;2.50;;
64959;SDS011;51487;52.266;10.542;2023-08-30T14:16:46;3.72;;;2.30;;
64959;SDS011;51487;52.266;10.542;2023-08-30T14:19:11;3.83;;;2.40;;
64959;SDS011;51487;52.266;10.542;2023-08-30T14:21:37;4.07;;;2.60;;
64959;SDS011;51487;52.266;10.542;2023-08-30T14:24:02;5.53;;;2.35;;
64959;SDS011;51487;52.266;10.542;2023-08-30T14:26:28;3.10;;;2.40;;
64959;SDS011;51487;52.266;10.542;2023-08-30T14:28:54;4.28;;;2.53;;
64959;SDS011;51487;52.266;10.542;2023-08-30T14:31:19;2.95;;;2.10;;
64959;SDS011;51487;52.266;10.542;2023-08-30T14:33:45;3.20;;;2.30;;
64959;SDS011;51487;52.266;10.542;2023-08-30T14:36:11;3.78;;;2.60;;
64959;SDS011;51487;52.266;10.542;2023-08-30T14:38:38;4.25;;;2.67;;
64959;SDS011;51487;52.266;10.542;2023-08-30T14:41:04;3.72;;;2.65;;
64959;SDS011;51487;52.266;10.542;2023-08-30T14:43:29;3.38;;;2.25;;